Time;durP1;ratioP1;P1;durP2;ratioP2;P2;SDS_P1;SDS_P2;PMS_P1;PMS_P2;Temp;Humidity;BMP_temperature;BMP_pressure;BME280_temperature;BME280_humidity;BME280_pressure;Samples;Min_cycle;Max_cycle;Signal;HPM_P1;HPM_P2
2023/12/29 00:01:31;;;;;;;3.70;1.67;;;10.50;94.70;;;;;;5139249;27;20462;-66
2023/12/29 00:03:57;;;;;;;6.50;3.13;;;10.50;94.80;;;;;;5139123;27;20474;-66
2023/12/29 00:06:24;;;;;;;9.20;1.40;;;10.50;94.70;;;;;;5141365;27;20440;-67
2023/12/29 00:08:51;;;;;;;4.60;1.30;;;10.50;94.60;;;;;;5144809;27;20425;-66
2023/12/29 00:11:19;;;;;;;3.60;1.80;;;10.50;94.70;;;;;;5141793;27;20468;-66
2023/12/29 00:13:47;;;;;;;3.60;1.30;;;10.50;94.50;;;;;;5138594;27;20437;-65
2023/12/29 00:16:14;;;;;;;4.43;1.40;;;10.50;94.60;;;;;;5138976;27;20437;-66
2023/12/29 00:18:40;;;;;;;5.67;1.93;;;10.60;94.30;;;;;;5138322;27;20484;-65
2023/12/29 00:21:08;;;;;;;13.67;1.67;;;10.60;94.00;;;;;;5136950;27;20468;-66
2023/12/29 00:23:34;;;;;;;2.30;1.20;;;10.60;93.60;;;;;;5137001;27;20444;-67
2023/12/29 00:26:01;;;;;;;3.47;1.60;;;10.60;93.30;;;;;;5136843;27;20447;-67
2023/12/29 00:28:28;;;;;;;3.67;1.47;;;10.70;93.50;;;;;;5138456;27;20444;-65
2023/12/29 00:30:56;;;;;;;3.43;1.33;;;10.70;93.60;;;;;;5140840;27;20441;-67
2023/12/29 00:33:23;;;;;;;3.73;1.40;;;10.70;93.40;;;;;;5141096;27;20816;-67
2023/12/29 00:35:50;;;;;;;2.30;1.40;;;10.60;93.50;;;;;;5140645;27;20516;-66
2023/12/29 00:38:16;;;;;;;7.03;1.57;;;10.60;93.70;;;;;;5140887;27;20848;-66
2023/12/29 00:40:43;;;;;;;4.10;1.20;;;10.60;94.00;;;;;;5140300;27;20440;-66
2023/12/29 00:43:10;;;;;;;4.17;1.33;;;10.60;94.20;;;;;;5139632;27;20440;-66
2023/12/29 00:45:37;;;;;;;3.17;1.20;;;10.60;94.40;;;;;;5140710;27;20527;-66
2023/12/29 00:48:06;;;;;;;3.90;1.33;;;10.60;94.40;;;;;;5139688;27;20440;-66
2023/12/29 00:50:32;;;;;;;2.33;1.40;;;10.60;94.50;;;;;;5139929;27;20444;-66
2023/12/29 00:52:59;;;;;;;3.87;1.93;;;10.60;94.50;;;;;;5139876;27;20456;-66
2023/12/29 00:55:26;;;;;;;6.40;1.93;;;10.60;94.70;;;;;;5139954;27;20445;-66
2023/12/29 00:57:53;;;;;;;3.10;1.30;;;10.60;94.80;;;;;;5140297;27;20475;-66
2023/12/29 01:00:20;;;;;;;5.73;1.77;;;10.60;95.00;;;;;;5141808;27;20444;-66
2023/12/29 01:02:47;;;;;;;6.03;1.60;;;10.60;95.20;;;;;;5140927;27;20468;-66
2023/12/29 01:05:17;;;;;;;8.53;1.43;;;10.60;95.30;;;;;;5143101;27;20436;-66
2023/12/29 01:07:44;;;;;;;3.30;1.30;;;10.60;95.50;;;;;;5149867;27;20423;-66
2023/12/29 01:10:11;;;;;;;2.80;1.30;;;10.60;95.70;;;;;;5150499;27;20447;-66
2023/12/29 01:12:38;;;;;;;5.90;1.67;;;10.60;95.80;;;;;;5149716;27;20570;-67
2023/12/29 01:15:05;;;;;;;3.50;1.57;;;10.60;96.00;;;;;;5150153;27;20489;-66
2023/12/29 01:17:32;;;;;;;2.63;1.87;;;10.60;96.10;;;;;;5150736;27;20472;-67
2023/12/29 01:19:59;;;;;;;2.30;1.20;;;10.60;96.20;;;;;;5146346;27;20531;-66
2023/12/29 01:22:27;;;;;;;4.10;1.50;;;10.70;96.50;;;;;;5149699;27;20524;-66
2023/12/29 01:24:54;;;;;;;3.20;1.43;;;10.60;96.60;;;;;;5152102;27;20437;-66
2023/12/29 01:27:21;;;;;;;4.40;1.83;;;10.60;96.80;;;;;;5150692;27;20436;-67
2023/12/29 01:29:48;;;;;;;7.30;1.70;;;10.60;97.00;;;;;;5139213;27;20988;-67
2023/12/29 01:32:15;;;;;;;9.03;2.17;;;10.70;97.20;;;;;;5138665;27;20960;-67
2023/12/29 01:34:42;;;;;;;4.63;2.57;;;10.70;97.20;;;;;;5139006;27;20443;-66
2023/12/29 01:37:08;;;;;;;9.23;1.80;;;10.70;97.20;;;;;;5138835;27;20447;-66
2023/12/29 01:39:37;;;;;;;4.57;1.30;;;10.70;97.40;;;;;;5137688;27;20444;-66
2023/12/29 01:42:03;;;;;;;4.77;1.60;;;10.60;97.50;;;;;;5138480;27;20551;-66
2023/12/29 01:44:30;;;;;;;4.70;1.63;;;10.70;97.60;;;;;;5138065;27;20436;-66
2023/12/29 01:47:01;;;;;;;5.20;1.70;;;10.70;97.80;;;;;;5138040;27;20517;-66
2023/12/29 01:49:28;;;;;;;1.40;1.13;;;10.70;97.90;;;;;;5138538;27;20445;-66
2023/12/29 01:51:58;;;;;;;2.83;1.60;;;10.70;98.00;;;;;;5138140;27;20467;-66
2023/12/29 01:54:28;;;;;;;2.67;1.23;;;10.70;98.40;;;;;;5138254;27;20803;-66
2023/12/29 01:57:00;;;;;;;2.07;1.40;;;10.70;98.30;;;;;;5138178;27;20507;-66
2023/12/29 01:59:28;;;;;;;3.73;1.13;;;10.70;98.80;;;;;;5138334;27;20471;-66
2023/12/29 02:01:55;;;;;;;4.50;2.00;;;10.60;99.20;;;;;;5138296;27;20449;-66
2023/12/29 02:04:24;;;;;;;12.27;1.83;;;10.60;99.50;;;;;;5138343;27;20436;-67
2023/12/29 02:06:51;;;;;;;2.63;1.60;;;10.60;99.90;;;;;;5137474;27;20972;-67
2023/12/29 02:09:19;;;;;;;4.63;1.60;;;10.50;99.90;;;;;;5138094;27;20441;-66
2023/12/29 02:11:45;;;;;;;3.57;1.43;;;10.50;99.90;;;;;;5137725;27;20464;-67
2023/12/29 02:14:15;;;;;;;3.77;1.30;;;10.50;99.90;;;;;;5138052;27;20930;-65
2023/12/29 02:16:52;;;;;;;4.50;1.50;;;10.50;99.90;;;;;;5137896;27;20809;-66
2023/12/29 02:19:39;;;;;;;3.23;1.53;;;10.50;99.90;;;;;;5138267;27;20543;-67
2023/12/29 02:22:06;;;;;;;3.60;1.43;;;10.50;99.90;;;;;;5138199;27;20456;-66
2023/12/29 02:24:35;;;;;;;2.60;1.10;;;10.50;99.90;;;;;;5138148;27;20441;-66
2023/12/29 02:27:13;;;;;;;4.20;1.50;;;10.50;99.90;;;;;;5137732;27;20445;-66
2023/12/29 02:29:44;;;;;;;2.23;1.60;;;10.50;99.90;;;;;;5141806;27;20507;-65
2023/12/29 02:32:15;;;;;;;3.07;1.00;;;10.50;99.90;;;;;;5147402;27;20532;-66
2023/12/29 02:34:43;;;;;;;4.00;1.30;;;10.50;99.90;;;;;;5150506;27;20440;-66
2023/12/29 02:37:13;;;;;;;2.70;1.20;;;10.50;99.90;;;;;;5148789;27;20455;-66
2023/12/29 02:39:40;;;;;;;2.40;1.57;;;10.60;99.90;;;;;;5142734;27;20486;-66
2023/12/29 02:42:08;;;;;;;2.63;1.50;;;10.60;99.90;;;;;;5142328;27;20553;-66
2023/12/29 02:44:35;;;;;;;4.33;1.70;;;10.60;99.90;;;;;;5141449;27;20480;-65
2023/12/29 02:47:03;;;;;;;6.50;1.90;;;10.60;99.90;;;;;;5139698;27;20439;-67
2023/12/29 02:49:30;;;;;;;3.40;1.37;;;10.60;99.90;;;;;;5137546;27;20489;-66
2023/12/29 02:51:57;;;;;;;3.73;1.80;;;10.60;99.90;;;;;;5135886;27;20516;-66
2023/12/29 02:54:24;;;;;;;7.80;1.40;;;10.60;99.90;;;;;;5136824;27;20447;-66
2023/12/29 02:56:50;;;;;;;3.00;1.37;;;10.60;99.90;;;;;;5136825;27;20818;-67
2023/12/29 02:59:18;;;;;;;2.73;1.33;;;10.60;99.90;;;;;;5136338;27;21012;-66
2023/12/29 03:01:46;;;;;;;2.50;1.10;;;10.60;99.90;;;;;;5133993;22;21008;-67
2023/12/29 03:04:13;;;;;;;1.80;1.40;;;10.60;99.90;;;;;;5054695;28;20436;-65
2023/12/29 03:06:41;;;;;;;4.00;1.50;;;10.60;99.90;;;;;;5054199;28;20432;-66
2023/12/29 03:09:08;;;;;;;2.40;1.53;;;10.60;99.90;;;;;;5054820;28;20438;-67
2023/12/29 03:11:35;;;;;;;1.80;1.30;;;10.60;99.90;;;;;;5054352;28;20456;-67
2023/12/29 03:14:01;;;;;;;2.77;1.20;;;10.60;99.90;;;;;;5054286;28;20466;-67
2023/12/29 03:16:29;;;;;;;3.37;1.30;;;10.60;99.90;;;;;;5054931;28;20440;-66
2023/12/29 03:18:56;;;;;;;2.13;1.00;;;10.60;99.90;;;;;;5054031;28;20484;-66
2023/12/29 03:21:23;;;;;;;3.93;1.60;;;10.60;99.90;;;;;;5054073;28;20460;-67
2023/12/29 03:23:50;;;;;;;2.93;1.47;;;10.60;99.90;;;;;;5053675;28;20532;-66
2023/12/29 03:26:17;;;;;;;6.27;1.60;;;10.60;99.90;;;;;;5053692;28;20458;-67
2023/12/29 03:28:43;;;;;;;4.33;1.40;;;10.60;99.90;;;;;;5053671;28;20440;-66
2023/12/29 03:31:10;;;;;;;2.50;1.23;;;10.60;99.90;;;;;;5053630;28;20436;-67
2023/12/29 03:33:39;;;;;;;2.30;1.30;;;10.60;99.90;;;;;;5053730;28;20451;-67
2023/12/29 03:36:07;;;;;;;4.67;1.60;;;10.60;99.90;;;;;;5053451;28;20926;-67
2023/12/29 03:38:34;;;;;;;4.10;1.40;;;10.60;99.90;;;;;;5054176;28;20852;-68
2023/12/29 03:41:01;;;;;;;4.33;1.40;;;10.60;99.90;;;;;;5053507;28;20523;-66
2023/12/29 03:43:27;;;;;;;3.00;1.00;;;10.60;99.90;;;;;;5054144;28;20441;-67
2023/12/29 03:45:54;;;;;;;10.70;3.60;;;10.60;99.90;;;;;;5053761;28;20466;-67
2023/12/29 03:48:21;;;;;;;3.40;1.40;;;10.60;99.90;;;;;;5053649;28;20437;-66
2023/12/29 03:50:49;;;;;;;2.80;1.40;;;10.60;99.90;;;;;;5053371;28;20471;-68
2023/12/29 03:53:16;;;;;;;2.50;1.07;;;10.70;99.90;;;;;;5053038;28;20456;-67
2023/12/29 03:55:43;;;;;;;2.23;0.90;;;10.70;99.90;;;;;;5053254;28;20436;-67
2023/12/29 03:58:10;;;;;;;6.70;1.67;;;10.70;99.90;;;;;;5053265;28;20480;-66
2023/12/29 04:00:37;;;;;;;3.00;1.00;;;10.70;99.90;;;;;;5053070;28;20436;-67
2023/12/29 04:03:04;;;;;;;3.37;1.07;;;10.70;99.90;;;;;;5053413;28;20472;-67
2023/12/29 04:05:31;;;;;;;2.50;0.90;;;10.70;99.90;;;;;;5053767;28;20501;-66
2023/12/29 04:07:59;;;;;;;2.00;1.03;;;10.60;99.90;;;;;;5052839;28;20910;-67
2023/12/29 04:12:53;;;;;;;1.40;1.20;;;10.40;99.90;;;;;;5090936;27;20899;-67
2023/12/29 04:15:19;;;;;;;1.87;0.90;;;10.30;99.90;;;;;;5091044;28;20450;-67
2023/12/29 04:17:46;;;;;;;1.93;0.87;;;10.30;99.90;;;;;;5090270;28;20468;-66
2023/12/29 04:20:13;;;;;;;5.40;1.17;;;10.30;99.90;;;;;;5090221;28;20446;-66
2023/12/29 04:22:40;;;;;;;2.20;0.90;;;10.30;99.90;;;;;;5090329;28;20457;-66
2023/12/29 04:25:07;;;;;;;2.83;1.30;;;10.20;99.90;;;;;;5096868;22;20491;-62
2023/12/29 04:27:34;;;;;;;2.77;1.00;;;10.20;99.90;;;;;;5069778;28;20439;-61
2023/12/29 04:30:02;;;;;;;3.53;0.97;;;10.20;99.90;;;;;;5069958;28;20440;-62
2023/12/29 04:32:29;;;;;;;6.17;1.33;;;10.20;99.90;;;;;;5069751;28;20483;-62
2023/12/29 04:34:56;;;;;;;1.77;1.13;;;10.20;99.90;;;;;;5069678;28;20456;-62
2023/12/29 04:37:23;;;;;;;1.20;0.97;;;10.20;99.90;;;;;;5069552;28;20439;-62
2023/12/29 04:39:49;;;;;;;1.37;0.97;;;10.20;99.90;;;;;;5069226;28;20929;-62
2023/12/29 04:42:17;;;;;;;1.33;1.00;;;10.20;99.90;;;;;;5069234;28;20946;-61
2023/12/29 04:44:44;;;;;;;2.63;1.20;;;10.30;99.90;;;;;;5069358;28;20554;-62
2023/12/29 04:47:12;;;;;;;1.10;1.00;;;10.30;99.90;;;;;;5069405;28;20477;-61
2023/12/29 04:49:39;;;;;;;3.67;1.37;;;10.30;99.90;;;;;;5069702;28;20439;-61
2023/12/29 04:52:06;;;;;;;2.17;1.17;;;10.30;99.90;;;;;;5069462;28;20480;-61
2023/12/29 04:54:33;;;;;;;3.40;1.23;;;10.30;99.90;;;;;;5068948;28;20459;-60
2023/12/29 04:57:00;;;;;;;2.20;1.10;;;10.30;99.90;;;;;;5069161;28;20443;-61
2023/12/29 04:59:27;;;;;;;5.10;1.50;;;10.30;99.90;;;;;;5070215;28;20773;-62
2023/12/29 05:01:53;;;;;;;2.80;1.17;;;10.30;99.90;;;;;;5106376;22;21019;-67
2023/12/29 05:04:22;;;;;;;2.23;1.00;;;10.20;99.90;;;;;;5097048;28;20451;-66
2023/12/29 05:06:48;;;;;;;1.70;0.80;;;10.20;99.90;;;;;;5099763;28;20525;-66
2023/12/29 05:09:15;;;;;;;1.50;0.73;;;10.10;99.90;;;;;;5100014;28;20434;-66
2023/12/29 05:11:42;;;;;;;5.30;1.80;;;10.00;99.90;;;;;;5102403;28;20546;-67
2023/12/29 05:14:09;;;;;;;3.60;1.27;;;10.00;99.90;;;;;;5102961;28;20455;-66
2023/12/29 05:16:36;;;;;;;2.30;1.07;;;10.00;99.90;;;;;;5100858;28;20445;-66
2023/12/29 05:19:03;;;;;;;2.40;1.20;;;9.90;99.90;;;;;;5099479;28;20438;-66
2023/12/29 05:21:31;;;;;;;1.00;0.80;;;9.90;99.90;;;;;;5103237;28;20517;-65
2023/12/29 05:23:58;;;;;;;1.27;1.03;;;9.80;99.90;;;;;;5087534;28;20500;-66
2023/12/29 05:26:25;;;;;;;2.80;1.03;;;9.80;99.90;;;;;;5086621;28;20811;-67
2023/12/29 05:28:52;;;;;;;8.13;1.60;;;9.80;99.90;;;;;;5086957;28;20469;-66
2023/12/29 05:31:18;;;;;;;2.13;1.00;;;9.80;99.90;;;;;;5086523;28;20486;-65
2023/12/29 05:33:46;;;;;;;1.80;1.40;;;9.80;99.90;;;;;;5081658;28;20449;-66
2023/12/29 05:36:13;;;;;;;4.20;1.33;;;9.90;99.90;;;;;;5081283;28;20440;-65
2023/12/29 05:38:41;;;;;;;2.57;1.10;;;9.90;99.90;;;;;;5080452;28;20519;-66
2023/12/29 05:41:08;;;;;;;5.80;1.50;;;9.90;99.90;;;;;;5080145;28;20612;-65
2023/12/29 05:43:35;;;;;;;4.13;1.47;;;10.00;99.90;;;;;;5081891;28;20526;-66
2023/12/29 05:46:02;;;;;;;4.80;1.37;;;10.00;99.90;;;;;;5081971;28;20443;-66
2023/12/29 05:48:29;;;;;;;3.73;1.60;;;10.00;99.90;;;;;;5081761;28;20444;-65
2023/12/29 05:50:56;;;;;;;5.33;1.40;;;10.00;99.90;;;;;;5082174;28;20482;-65
2023/12/29 05:53:22;;;;;;;2.50;1.53;;;10.00;99.90;;;;;;5080539;28;21010;-66
2023/12/29 05:55:51;;;;;;;1.57;1.40;;;10.00;99.90;;;;;;5080078;28;20506;-66
2023/12/29 05:58:17;;;;;;;3.20;2.07;;;9.90;99.90;;;;;;5079855;28;20531;-66
2023/12/29 06:00:44;;;;;;;3.20;1.57;;;10.00;99.90;;;;;;5078844;28;20945;-65
2023/12/29 06:03:11;;;;;;;4.60;2.00;;;10.00;99.90;;;;;;5077639;28;20531;-66
2023/12/29 06:05:39;;;;;;;2.67;1.60;;;10.00;99.90;;;;;;5079025;28;20447;-66
2023/12/29 06:08:07;;;;;;;4.47;1.93;;;10.00;99.90;;;;;;5077741;28;20447;-66
2023/12/29 06:10:35;;;;;;;2.03;1.60;;;10.00;99.90;;;;;;5084494;28;20486;-65
2023/12/29 06:13:04;;;;;;;3.60;1.50;;;10.10;99.90;;;;;;5082763;28;20489;-65
2023/12/29 06:15:31;;;;;;;5.13;2.30;;;10.10;99.90;;;;;;5079554;28;20443;-66
2023/12/29 06:17:58;;;;;;;4.43;1.80;;;10.10;99.90;;;;;;5077917;28;20530;-66
2023/12/29 06:20:25;;;;;;;6.90;2.00;;;10.00;99.90;;;;;;5080078;28;20443;-65
2023/12/29 06:22:52;;;;;;;9.70;2.47;;;10.10;99.90;;;;;;5076998;28;20837;-66
2023/12/29 06:25:19;;;;;;;4.10;2.17;;;9.90;99.90;;;;;;5078161;28;20934;-65
2023/12/29 06:27:46;;;;;;;5.47;2.37;;;9.80;99.90;;;;;;5077560;28;20522;-66
2023/12/29 06:30:15;;;;;;;3.25;1.80;;;9.70;99.90;;;;;;5077054;28;20444;-65
2023/12/29 06:32:42;;;;;;;6.63;2.50;;;9.60;99.90;;;;;;5076474;28;20221;-67
2023/12/29 06:35:10;;;;;;;4.50;2.58;;;9.50;99.90;;;;;;5076543;28;20741;-64
2023/12/29 06:37:37;;;;;;;5.60;2.10;;;9.40;99.90;;;;;;5077785;28;20197;-66
2023/12/29 06:40:05;;;;;;;8.35;2.90;;;9.40;99.90;;;;;;5076901;28;20439;-66
2023/12/29 06:42:32;;;;;;;6.43;2.90;;;9.40;99.90;;;;;;5077016;28;20380;-66
2023/12/29 06:44:59;;;;;;;6.20;2.75;;;9.30;99.90;;;;;;5076669;28;20293;-65
2023/12/29 06:47:27;;;;;;;7.18;2.88;;;9.40;99.90;;;;;;5077858;28;20244;-66
2023/12/29 06:49:54;;;;;;;5.63;2.60;;;9.40;99.90;;;;;;5080919;28;20201;-66
2023/12/29 06:52:21;;;;;;;12.85;4.57;;;9.40;99.90;;;;;;5078422;28;20217;-66
2023/12/29 06:54:48;;;;;;;4.87;2.30;;;9.50;99.90;;;;;;5077863;28;20270;-65
2023/12/29 06:57:16;;;;;;;5.35;2.35;;;9.60;99.90;;;;;;5076480;28;20526;-66
2023/12/29 06:59:43;;;;;;;5.63;2.47;;;9.70;99.90;;;;;;5076828;28;20212;-66
2023/12/29 07:02:10;;;;;;;4.00;2.20;;;9.80;99.90;;;;;;5075912;28;20475;-67
2023/12/29 07:04:42;;;;;;;4.00;2.37;;;9.90;99.90;;;;;;5075324;28;20447;-66
2023/12/29 07:07:09;;;;;;;7.40;2.70;;;9.90;99.90;;;;;;5075332;28;20519;-66
2023/12/29 07:09:39;;;;;;;7.60;2.70;;;10.00;99.90;;;;;;5075139;28;20530;-65
2023/12/29 07:12:06;;;;;;;4.32;2.17;;;10.00;99.90;;;;;;5075199;28;21064;-66
2023/12/29 07:14:32;;;;;;;4.13;1.80;;;10.10;99.90;;;;;;5076287;28;20227;-67
2023/12/29 07:16:59;;;;;;;2.87;2.47;;;10.10;99.90;;;;;;5075921;28;20439;-67
2023/12/29 07:19:29;;;;;;;3.73;2.27;;;10.10;99.90;;;;;;5076271;28;20531;-65
2023/12/29 07:21:57;;;;;;;6.10;2.37;;;10.20;99.90;;;;;;5083718;28;20471;-65
2023/12/29 07:24:24;;;;;;;6.28;2.22;;;10.20;99.90;;;;;;5083511;28;20530;-66
2023/12/29 07:26:51;;;;;;;5.53;2.47;;;10.20;99.90;;;;;;5075759;28;20201;-64
2023/12/29 07:29:18;;;;;;;5.10;2.70;;;10.20;99.90;;;;;;5075097;28;20530;-68
2023/12/29 07:31:45;;;;;;;4.23;2.10;;;10.20;99.90;;;;;;5074557;28;20510;-66
2023/12/29 07:34:11;;;;;;;4.27;2.23;;;10.20;99.90;;;;;;5075072;28;20438;-64
2023/12/29 07:36:40;;;;;;;8.57;2.23;;;10.20;99.90;;;;;;5075575;28;20994;-66
2023/12/29 07:39:09;;;;;;;7.50;2.40;;;10.30;99.90;;;;;;5075453;28;20471;-67
2023/12/29 07:41:40;;;;;;;7.57;2.30;;;10.30;99.90;;;;;;5077184;28;20546;-66
2023/12/29 07:44:07;;;;;;;5.10;2.40;;;10.30;99.90;;;;;;5078220;28;20477;-66
2023/12/29 07:46:34;;;;;;;9.13;2.20;;;10.30;99.90;;;;;;5076964;28;20439;-66
2023/12/29 07:49:01;;;;;;;2.47;1.93;;;10.30;99.90;;;;;;5075235;28;20447;-65
2023/12/29 07:51:28;;;;;;;7.73;2.27;;;10.40;99.90;;;;;;5075417;28;20546;-65
2023/12/29 07:53:55;;;;;;;3.47;2.10;;;10.40;99.90;;;;;;5074592;28;20923;-65
2023/12/29 07:56:23;;;;;;;7.20;2.37;;;10.40;99.90;;;;;;5074654;28;20526;-65
2023/12/29 07:58:50;;;;;;;7.40;2.10;;;10.40;99.90;;;;;;5075701;28;20458;-66
2023/12/29 08:01:16;;;;;;;4.67;2.20;;;10.40;99.90;;;;;;5076216;28;20478;-65
2023/12/29 08:03:43;;;;;;;5.97;2.13;;;10.40;99.90;;;;;;5075264;28;20503;-64
2023/12/29 08:06:12;;;;;;;5.83;2.23;;;10.40;99.90;;;;;;5074973;28;20961;-66
2023/12/29 08:08:39;;;;;;;7.70;2.27;;;10.50;99.90;;;;;;5075473;28;20455;-65
2023/12/29 08:11:05;;;;;;;6.87;3.13;;;10.50;99.90;;;;;;5075300;28;20459;-66
2023/12/29 08:13:34;;;;;;;4.50;2.30;;;10.50;99.90;;;;;;5075643;28;20479;-65
2023/12/29 08:16:00;;;;;;;5.27;2.17;;;10.50;99.90;;;;;;5074952;28;20447;-66
2023/12/29 08:18:27;;;;;;;6.73;2.43;;;10.50;99.90;;;;;;5076534;28;20439;-65
2023/12/29 08:20:54;;;;;;;3.73;2.03;;;10.50;99.90;;;;;;5073998;28;20450;-66
2023/12/29 08:23:21;;;;;;;2.93;1.80;;;10.50;99.90;;;;;;5074711;28;20435;-66
2023/12/29 08:25:48;;;;;;;3.70;2.33;;;10.60;99.90;;;;;;5074006;28;20447;-64
2023/12/29 08:28:14;;;;;;;11.27;2.53;;;10.60;99.90;;;;;;5075055;28;20450;-66
2023/12/29 08:30:45;;;;;;;5.70;1.90;;;10.60;99.90;;;;;;5073952;28;20441;-65
2023/12/29 08:33:13;;;;;;;5.93;2.00;;;10.60;99.90;;;;;;5073890;28;20463;-64
2023/12/29 08:35:40;;;;;;;7.10;2.03;;;10.60;99.90;;;;;;5074379;28;20493;-67
2023/12/29 08:38:07;;;;;;;7.27;2.50;;;10.70;99.90;;;;;;5073716;28;20533;-65
2023/12/29 08:40:34;;;;;;;2.97;1.77;;;10.70;99.90;;;;;;5074267;28;20439;-66
2023/12/29 08:43:01;;;;;;;7.90;2.40;;;10.70;99.90;;;;;;5074070;28;20458;-65
2023/12/29 08:45:28;;;;;;;4.77;2.07;;;10.70;99.90;;;;;;5074431;28;20867;-67
2023/12/29 08:47:56;;;;;;;5.60;2.07;;;10.80;99.90;;;;;;5074984;28;20438;-66
2023/12/29 08:50:23;;;;;;;2.93;1.70;;;10.80;99.90;;;;;;5074741;28;20949;-65
2023/12/29 08:52:49;;;;;;;5.80;2.13;;;10.80;99.90;;;;;;5074309;28;20490;-66
2023/12/29 08:55:16;;;;;;;4.93;2.03;;;10.90;99.90;;;;;;5074158;28;20436;-65
2023/12/29 08:57:43;;;;;;;5.70;1.77;;;10.90;99.90;;;;;;5075080;28;20793;-65
2023/12/29 09:00:11;;;;;;;5.93;2.00;;;10.90;99.90;;;;;;5077827;28;20527;-65
2023/12/29 09:02:37;;;;;;;7.23;2.13;;;10.90;99.90;;;;;;5078579;28;20467;-66
2023/12/29 09:05:07;;;;;;;3.67;1.50;;;10.90;99.90;;;;;;5081232;28;20443;-66
2023/12/29 09:07:34;;;;;;;7.60;2.20;;;11.00;99.90;;;;;;5080318;28;20443;-65
2023/12/29 09:10:02;;;;;;;11.00;2.47;;;11.00;99.90;;;;;;5080782;28;20446;-65
2023/12/29 09:12:29;;;;;;;5.83;1.93;;;11.00;99.90;;;;;;5081114;28;20485;-66
2023/12/29 09:14:56;;;;;;;5.93;2.00;;;11.00;99.90;;;;;;5081573;28;20446;-67
2023/12/29 09:17:22;;;;;;;7.43;2.53;;;11.00;99.90;;;;;;5080341;28;20447;-65
2023/12/29 09:19:49;;;;;;;5.63;1.77;;;11.10;99.90;;;;;;5079396;28;20789;-66
2023/12/29 09:22:17;;;;;;;4.70;1.60;;;11.10;99.90;;;;;;5080794;28;20474;-65
2023/12/29 09:24:44;;;;;;;6.30;1.97;;;11.10;99.90;;;;;;5081576;28;20451;-64
2023/12/29 09:27:11;;;;;;;3.40;1.67;;;11.10;99.90;;;;;;5081650;28;20526;-64
2023/12/29 09:29:38;;;;;;;10.23;2.23;;;11.10;99.90;;;;;;5080174;28;20591;-66
2023/12/29 09:32:05;;;;;;;6.20;1.70;;;11.10;99.90;;;;;;5077828;28;20466;-66
2023/12/29 09:34:32;;;;;;;3.80;2.00;;;11.10;99.90;;;;;;5077020;28;20821;-66
2023/12/29 09:36:59;;;;;;;7.10;2.40;;;11.10;99.90;;;;;;5076230;28;20948;-66
2023/12/29 09:39:28;;;;;;;6.67;2.00;;;11.10;99.90;;;;;;5077569;28;20462;-65
2023/12/29 09:42:00;;;;;;;2.73;1.67;;;11.00;99.90;;;;;;5077554;28;20521;-65
2023/12/29 09:44:28;;;;;;;5.00;1.77;;;10.90;99.90;;;;;;5077971;28;20423;-65
2023/12/29 09:46:57;;;;;;;3.63;1.73;;;10.80;99.90;;;;;;5076462;28;20857;-66
2023/12/29 09:49:25;;;;;;;4.27;1.97;;;10.70;99.90;;;;;;5077723;28;20439;-65
2023/12/29 09:51:52;;;;;;;4.60;1.50;;;10.50;99.90;;;;;;5084027;28;20455;-65
2023/12/29 09:54:19;;;;;;;3.87;2.00;;;10.30;99.90;;;;;;5084446;28;20471;-64
2023/12/29 09:56:50;;;;;;;6.27;1.67;;;10.20;99.90;;;;;;5078692;28;20446;-67
2023/12/29 09:59:17;;;;;;;4.07;1.43;;;10.10;99.90;;;;;;5080108;28;20426;-66
2023/12/29 10:01:46;;;;;;;3.63;1.20;;;10.00;99.90;;;;;;5078711;28;21007;-66
2023/12/29 10:04:13;;;;;;;1.80;1.37;;;9.80;99.90;;;;;;5076952;28;20561;-66
2023/12/29 10:06:45;;;;;;;3.58;1.50;;;9.60;99.90;;;;;;5076592;28;20822;-66
2023/12/29 10:09:13;;;;;;;2.17;1.00;;;9.40;99.90;;;;;;5077565;28;20603;-66
2023/12/29 10:11:43;;;;;;;4.10;1.45;;;9.10;99.90;;;;;;5077310;28;20467;-67
2023/12/29 10:14:23;;;;;;;1.13;0.95;;;8.90;99.90;;;;;;5078581;28;20242;-66
2023/12/29 10:16:55;;;;;;;2.08;1.23;;;8.80;99.90;;;;;;5077364;28;20258;-66
2023/12/29 10:19:33;;;;;;;6.82;1.50;;;8.80;99.90;;;;;;5077907;28;20182;-66
2023/12/29 10:22:09;;;;;;;2.92;1.40;;;8.70;99.90;;;;;;5077605;28;20221;-67
2023/12/29 10:24:36;;;;;;;2.35;1.40;;;8.70;99.90;;;;;;5078191;28;20212;-67
2023/12/29 10:27:03;;;;;;;4.32;1.42;;;8.70;99.90;;;;;;5081422;28;20197;-66
2023/12/29 10:29:32;;;;;;;2.63;1.30;;;8.80;99.90;;;;;;5082833;28;20209;-65
2023/12/29 10:31:59;;;;;;;4.97;2.42;;;8.80;99.90;;;;;;5082569;28;20220;-66
2023/12/29 10:34:29;;;;;;;3.03;1.30;;;8.80;99.90;;;;;;5080290;28;20221;-67
2023/12/29 10:36:56;;;;;;;3.78;1.70;;;8.90;99.90;;;;;;5078656;28;20215;-68
2023/12/29 10:39:23;;;;;;;2.75;1.00;;;8.90;99.90;;;;;;5077720;28;20227;-65
2023/12/29 10:41:50;;;;;;;6.05;1.80;;;8.90;99.90;;;;;;5076280;28;20317;-65
2023/12/29 10:44:17;;;;;;;5.43;1.80;;;8.80;99.90;;;;;;5076490;28;20259;-65
2023/12/29 10:46:45;;;;;;;3.17;1.48;;;8.80;99.90;;;;;;5077398;28;20255;-66
2023/12/29 10:49:14;;;;;;;1.88;1.10;;;8.80;99.90;;;;;;5080216;28;20205;-65
2023/12/29 10:51:41;;;;;;;3.60;1.20;;;8.80;99.90;;;;;;5076741;28;20223;-66
2023/12/29 10:54:08;;;;;;;2.72;1.65;;;8.80;99.90;;;;;;5076148;28;20221;-65
2023/12/29 10:56:34;;;;;;;3.65;1.73;;;8.90;99.90;;;;;;5076142;28;20207;-65
2023/12/29 10:59:03;;;;;;;3.28;2.95;;;8.90;99.90;;;;;;5076593;28;20207;-65
2023/12/29 11:01:30;;;;;;;3.40;1.45;;;8.90;99.90;;;;;;5077644;28;20235;-65
2023/12/29 11:04:03;;;;;;;7.78;2.80;;;9.00;99.90;;;;;;5077469;28;20563;-66
2023/12/29 11:06:30;;;;;;;2.10;1.10;;;9.00;99.90;;;;;;5076260;28;20197;-65
2023/12/29 11:08:58;;;;;;;5.28;1.30;;;9.10;99.90;;;;;;5076992;28;20450;-65
2023/12/29 11:11:25;;;;;;;3.80;1.58;;;9.20;99.90;;;;;;5077044;28;20221;-65
2023/12/29 11:13:53;;;;;;;3.67;1.40;;;9.30;99.90;;;;;;5075833;28;20247;-66
2023/12/29 11:16:22;;;;;;;2.40;1.27;;;9.30;99.90;;;;;;5077008;28;20283;-64
2023/12/29 11:18:51;;;;;;;4.85;1.27;;;9.40;99.90;;;;;;5077361;28;20211;-65
2023/12/29 11:21:22;;;;;;;2.00;1.25;;;9.40;99.90;;;;;;5077230;28;20217;-65
2023/12/29 11:23:49;;;;;;;2.20;1.23;;;9.50;99.90;;;;;;5078501;28;20526;-67
2023/12/29 11:26:16;;;;;;;3.90;1.50;;;9.50;99.90;;;;;;5079397;28;20439;-66
2023/12/29 11:28:44;;;;;;;0.97;0.90;;;9.60;99.90;;;;;;5077662;28;20447;-66
2023/12/29 11:31:11;;;;;;;1.67;1.20;;;9.60;99.90;;;;;;5075575;28;20831;-66
2023/12/29 11:33:44;;;;;;;3.00;1.20;;;9.70;99.90;;;;;;5075183;28;21068;-67
2023/12/29 11:36:16;;;;;;;1.20;1.00;;;9.80;99.90;;;;;;5075692;28;20474;-66
2023/12/29 11:38:55;;;;;;;1.70;1.20;;;9.80;99.90;;;;;;5075473;28;20921;-65
2023/12/29 11:41:31;;;;;;;1.67;1.33;;;9.80;99.90;;;;;;5075645;28;20463;-68
2023/12/29 11:43:58;;;;;;;3.03;1.60;;;9.90;99.90;;;;;;5075404;28;20898;-67
2023/12/29 11:46:35;;;;;;;2.63;1.83;;;9.90;99.90;;;;;;5075780;28;20444;-67
2023/12/29 11:49:03;;;;;;;1.23;0.90;;;10.00;99.90;;;;;;5074819;28;20450;-67
2023/12/29 11:51:32;;;;;;;1.80;1.20;;;10.00;99.90;;;;;;5076604;28;20984;-66
2023/12/29 11:54:01;;;;;;;4.77;1.40;;;10.00;99.90;;;;;;5075652;28;20482;-65
2023/12/29 11:56:40;;;;;;;2.60;1.30;;;10.00;99.90;;;;;;5075569;28;20450;-67
2023/12/29 11:59:17;;;;;;;2.80;1.83;;;10.00;99.90;;;;;;5075818;28;20959;-64
2023/12/29 12:01:44;;;;;;;1.30;1.17;;;10.10;99.90;;;;;;5076055;28;20467;-66
2023/12/29 12:04:40;;;;;;;2.03;1.10;;;10.10;99.90;;;;;;5077249;28;20443;-66
2023/12/29 12:07:09;;;;;;;3.37;1.50;;;10.10;99.90;;;;;;5076924;28;20443;-67
2023/12/29 12:09:37;;;;;;;2.73;1.60;;;10.10;99.90;;;;;;5075179;28;20886;-65
2023/12/29 12:12:05;;;;;;;5.30;2.20;;;10.20;99.90;;;;;;5075736;28;20455;-66
2023/12/29 12:14:49;;;;;;;2.70;1.33;;;10.20;99.90;;;;;;5074918;28;20540;-65
2023/12/29 12:17:33;;;;;;;5.13;2.17;;;10.30;99.90;;;;;;5075079;28;20439;-66
2023/12/29 12:20:03;;;;;;;2.00;1.70;;;10.30;99.90;;;;;;5079344;28;20450;-67
2023/12/29 12:22:32;;;;;;;1.97;1.37;;;10.40;99.90;;;;;;5085400;28;20463;-66
2023/12/29 12:25:01;;;;;;;1.37;1.27;;;10.50;99.90;;;;;;5081829;28;20444;-64
2023/12/29 12:27:28;;;;;;;4.93;2.00;;;10.60;99.90;;;;;;5079939;28;20440;-65
2023/12/29 12:29:57;;;;;;;2.90;2.00;;;10.70;99.90;;;;;;5079414;28;20534;-64
2023/12/29 12:32:24;;;;;;;2.73;1.70;;;10.80;99.90;;;;;;5079182;28;20475;-65
2023/12/29 12:34:51;;;;;;;1.53;1.40;;;10.80;99.90;;;;;;5082975;28;20502;-65
2023/12/29 12:37:22;;;;;;;1.20;1.10;;;10.80;99.90;;;;;;5082561;28;20443;-66
2023/12/29 12:39:49;;;;;;;2.63;1.40;;;10.80;99.90;;;;;;5080108;28;20447;-65
2023/12/29 12:42:18;;;;;;;8.50;1.90;;;10.80;99.90;;;;;;5080824;28;20516;-69
2023/12/29 12:44:51;;;;;;;4.57;1.90;;;10.70;99.90;;;;;;5079968;28;20439;-68
2023/12/29 12:47:35;;;;;;;1.87;1.77;;;10.70;99.90;;;;;;5079235;28;20430;-67
2023/12/29 12:50:02;;;;;;;2.07;1.33;;;10.70;99.90;;;;;;5078988;28;20428;-66
2023/12/29 12:52:32;;;;;;;1.97;1.40;;;10.70;99.90;;;;;;5080277;28;20463;-67
2023/12/29 12:54:59;;;;;;;1.43;0.90;;;10.70;99.90;;;;;;5079047;28;20486;-65